Time;durP1;ratioP1;P1;durP2;ratioP2;P2;SDS_P1;SDS_P2;PMS_P1;PMS_P2;Temp;Humidity;BMP_temperature;BMP_pressure;BME280_temperature;BME280_humidity;BME280_pressure;Samples;Min_cycle;Max_cycle;Signal;HPM_P1;HPM_P2
2023/06/01 00:02:20;;;;;;;6.30;2.27;;;16.50;96.90;;;;;;5031799;28;20442;-71
2023/06/01 00:04:48;;;;;;;2.80;1.53;;;16.50;97.50;;;;;;5031900;28;20208;-69
2023/06/01 00:07:14;;;;;;;3.57;2.33;;;16.50;97.60;;;;;;5031585;28;20173;-70
2023/06/01 00:09:39;;;;;;;1.67;1.57;;;16.40;97.90;;;;;;5030303;28;20918;-69
2023/06/01 00:12:06;;;;;;;2.77;2.57;;;16.40;98.30;;;;;;5031579;28;20526;-68
2023/06/01 00:14:31;;;;;;;3.10;1.50;;;16.30;98.70;;;;;;5031666;28;20168;-69
2023/06/01 00:16:58;;;;;;;2.33;1.80;;;16.30;99.00;;;;;;5031408;28;20495;-69
2023/06/01 00:19:28;;;;;;;2.90;2.00;;;16.30;99.20;;;;;;5031799;28;20183;-71
2023/06/01 00:21:55;;;;;;;3.80;1.80;;;16.20;99.60;;;;;;5030946;28;20439;-70
2023/06/01 00:24:21;;;;;;;4.47;2.07;;;16.20;99.90;;;;;;5030119;28;20451;-69
2023/06/01 00:26:47;;;;;;;4.87;2.27;;;16.20;99.90;;;;;;5030893;28;20411;-71
2023/06/01 00:29:13;;;;;;;2.97;1.63;;;16.10;99.90;;;;;;5029389;28;20407;-70
2023/06/01 00:31:39;;;;;;;2.47;1.70;;;16.00;99.90;;;;;;5030564;28;20901;-69
2023/06/01 00:34:07;;;;;;;4.03;2.00;;;15.90;99.90;;;;;;5027146;28;20183;-69
2023/06/01 00:36:32;;;;;;;5.33;2.40;;;15.90;99.90;;;;;;5020494;28;20874;-70
2023/06/01 00:39:02;;;;;;;2.53;1.50;;;15.90;99.90;;;;;;5025361;28;20469;-70
2023/06/01 00:41:28;;;;;;;2.57;2.37;;;15.80;99.90;;;;;;5030590;28;20215;-68
2023/06/01 00:43:54;;;;;;;2.97;1.77;;;15.80;99.90;;;;;;5031589;28;20458;-69
2023/06/01 00:46:20;;;;;;;2.40;2.20;;;15.80;99.90;;;;;;5029519;28;21252;-69
2023/06/01 00:48:46;;;;;;;3.53;1.80;;;15.70;99.90;;;;;;5030890;28;20280;-71
2023/06/01 00:51:14;;;;;;;2.77;1.77;;;15.70;99.90;;;;;;5031405;28;20180;-70
2023/06/01 00:53:41;;;;;;;3.97;1.90;;;15.70;99.90;;;;;;5031537;28;20414;-70
2023/06/01 00:56:07;;;;;;;5.87;2.23;;;15.70;99.90;;;;;;5017132;28;20932;-69
2023/06/01 00:58:32;;;;;;;9.53;2.30;;;15.60;99.90;;;;;;5016088;28;20542;-70
2023/06/01 01:00:58;;;;;;;4.07;1.87;;;15.60;99.90;;;;;;5025141;28;20904;-72
2023/06/01 01:03:25;;;;;;;2.60;2.10;;;15.70;99.90;;;;;;5030509;28;20212;-68
2023/06/01 01:06:11;;;;;;;2.63;1.83;;;15.60;99.90;;;;;;5026352;28;20477;-69
2023/06/01 01:08:59;;;;;;;3.00;2.17;;;15.50;99.90;;;;;;5031045;28;20414;-69
2023/06/01 01:11:29;;;;;;;3.80;2.40;;;15.50;99.90;;;;;;5030702;28;20440;-69
2023/06/01 01:14:22;;;;;;;3.50;2.60;;;15.50;99.90;;;;;;5030504;28;20510;-69
2023/06/01 01:17:02;;;;;;;2.67;2.47;;;15.40;99.90;;;;;;5018786;28;20427;-69
2023/06/01 01:19:50;;;;;;;2.23;2.03;;;15.40;99.90;;;;;;5030367;28;20426;-71
2023/06/01 01:22:40;;;;;;;3.83;1.93;;;15.40;99.90;;;;;;5027116;28;20442;-70
2023/06/01 01:25:40;;;;;;;2.50;2.27;;;15.30;99.90;;;;;;5025477;28;20419;-70
2023/06/01 01:28:25;;;;;;;6.27;2.53;;;15.30;99.90;;;;;;5026002;28;20414;-69
2023/06/01 01:30:54;;;;;;;3.30;2.47;;;15.20;99.90;;;;;;5030378;28;20475;-71
2023/06/01 01:33:21;;;;;;;3.03;2.33;;;15.10;99.90;;;;;;5027978;28;20867;-70
2023/06/01 01:35:49;;;;;;;3.40;2.53;;;15.00;99.90;;;;;;5030219;28;20434;-69
2023/06/01 01:38:15;;;;;;;5.03;2.40;;;15.00;99.90;;;;;;5030414;28;20447;-69
2023/06/01 01:40:40;;;;;;;3.93;2.40;;;15.10;99.90;;;;;;5030023;28;20415;-69
2023/06/01 01:43:06;;;;;;;2.60;1.87;;;15.00;99.90;;;;;;5030235;28;20288;-71
2023/06/01 01:45:32;;;;;;;2.70;2.00;;;15.10;99.90;;;;;;5029682;28;20178;-70
2023/06/01 01:48:14;;;;;;;3.10;2.13;;;15.10;99.90;;;;;;5030249;28;20164;-69
2023/06/01 01:50:50;;;;;;;2.63;2.43;;;15.00;99.90;;;;;;5029994;28;20866;-70
2023/06/01 01:53:17;;;;;;;5.20;2.40;;;14.90;99.90;;;;;;5023769;28;20431;-69
2023/06/01 01:55:45;;;;;;;4.27;2.77;;;14.90;99.90;;;;;;5024358;28;20497;-70
2023/06/01 01:58:11;;;;;;;3.40;2.50;;;14.90;99.90;;;;;;5029872;28;20422;-70
2023/06/01 02:00:37;;;;;;;5.13;2.27;;;14.80;99.90;;;;;;5029687;28;20513;-70
2023/06/01 02:03:03;;;;;;;2.63;2.43;;;14.70;99.90;;;;;;5029490;28;21003;-70
2023/06/01 02:05:28;;;;;;;5.00;2.33;;;14.60;99.90;;;;;;5029381;28;20912;-69
2023/06/01 02:07:54;;;;;;;4.37;3.40;;;14.60;99.90;;;;;;5029598;28;20186;-72
2023/06/01 02:10:20;;;;;;;3.50;2.37;;;14.50;99.90;;;;;;5029611;28;20176;-71
2023/06/01 02:12:45;;;;;;;4.43;2.27;;;14.40;99.90;;;;;;5029698;28;20195;-69
2023/06/01 02:15:11;;;;;;;5.57;2.67;;;14.40;99.90;;;;;;5029245;28;20187;-70
2023/06/01 02:17:37;;;;;;;5.60;3.07;;;14.30;99.90;;;;;;5029375;28;20186;-69
2023/06/01 02:20:03;;;;;;;5.47;2.33;;;14.20;99.90;;;;;;5029185;28;20195;-69
2023/06/01 02:22:29;;;;;;;2.40;2.20;;;14.10;99.90;;;;;;5029232;28;20458;-70
2023/06/01 02:24:55;;;;;;;3.50;2.47;;;14.10;99.90;;;;;;5029178;28;20420;-70
2023/06/01 02:27:20;;;;;;;5.10;2.50;;;14.00;99.90;;;;;;5029322;28;20848;-70
2023/06/01 02:29:46;;;;;;;2.10;2.00;;;14.00;99.90;;;;;;5029324;28;20160;-71
2023/06/01 02:32:11;;;;;;;5.03;2.27;;;14.00;99.90;;;;;;5029135;28;20192;-70
2023/06/01 02:34:37;;;;;;;2.70;2.50;;;14.00;99.90;;;;;;5029200;28;20219;-69
2023/06/01 02:37:04;;;;;;;4.03;2.77;;;13.90;99.90;;;;;;5029004;28;20650;-71
2023/06/01 02:39:30;;;;;;;3.57;2.80;;;13.90;99.90;;;;;;5029407;28;20265;-70
2023/06/01 02:41:55;;;;;;;2.90;2.40;;;13.80;99.90;;;;;;5028892;28;20607;-71
2023/06/01 02:44:21;;;;;;;6.93;2.80;;;13.80;99.90;;;;;;5028666;28;20295;-70
2023/06/01 02:46:46;;;;;;;4.40;2.90;;;13.80;99.90;;;;;;5029103;28;20845;-70
2023/06/01 02:49:12;;;;;;;5.07;2.90;;;13.70;99.90;;;;;;5028985;28;20168;-69
2023/06/01 02:51:38;;;;;;;4.50;3.30;;;13.60;99.90;;;;;;5028902;28;20216;-69
2023/06/01 02:54:03;;;;;;;4.73;3.10;;;13.60;99.90;;;;;;5026664;28;20263;-70
2023/06/01 02:56:30;;;;;;;6.10;3.27;;;13.50;99.90;;;;;;5029010;28;20171;-70
2023/06/01 02:58:55;;;;;;;2.93;2.53;;;13.60;99.90;;;;;;5029059;28;20445;-71
2023/06/01 03:01:21;;;;;;;3.97;3.30;;;13.50;99.90;;;;;;5028805;28;20458;-71
2023/06/01 03:03:48;;;;;;;3.83;2.80;;;13.50;99.90;;;;;;5028904;28;20183;-70
2023/06/01 03:06:14;;;;;;;6.80;3.23;;;13.50;99.90;;;;;;5028762;28;20536;-72
2023/06/01 03:08:39;;;;;;;3.40;2.30;;;13.40;99.90;;;;;;5028841;28;20980;-70
2023/06/01 03:11:05;;;;;;;6.20;2.67;;;13.40;99.90;;;;;;5028993;28;20243;-71
2023/06/01 03:13:31;;;;;;;5.10;2.67;;;13.40;99.90;;;;;;5028797;28;20175;-71
2023/06/01 03:15:56;;;;;;;4.97;4.37;;;13.40;99.90;;;;;;5028607;28;20171;-70
2023/06/01 03:18:22;;;;;;;7.60;3.43;;;13.30;99.90;;;;;;5028513;28;20259;-70
2023/06/01 03:20:48;;;;;;;5.20;3.30;;;13.20;99.90;;;;;;5027274;28;20333;-70
2023/06/01 03:23:14;;;;;;;4.63;3.47;;;13.20;99.90;;;;;;5028538;28;20512;-70
2023/06/01 03:25:40;;;;;;;5.67;4.00;;;13.20;99.90;;;;;;5028700;28;20410;-71
2023/06/01 03:28:05;;;;;;;5.67;3.90;;;13.10;99.90;;;;;;5028584;28;20490;-69
2023/06/01 03:30:31;;;;;;;6.03;4.00;;;13.10;99.90;;;;;;5028480;28;20669;-70
2023/06/01 03:32:57;;;;;;;8.87;4.33;;;13.10;99.90;;;;;;5028689;28;20538;-70
2023/06/01 03:35:22;;;;;;;4.70;3.63;;;13.10;99.90;;;;;;5028702;28;20194;-71
2023/06/01 03:37:48;;;;;;;8.70;3.47;;;13.00;99.90;;;;;;5028504;28;20622;-70
2023/06/01 03:40:14;;;;;;;6.27;3.87;;;13.00;99.90;;;;;;5028634;28;20214;-70
2023/06/01 03:42:44;;;;;;;5.50;3.73;;;13.00;99.90;;;;;;5028144;28;20678;-70
2023/06/01 03:45:11;;;;;;;9.30;5.10;;;13.00;99.90;;;;;;5028205;28;20266;-70
2023/06/01 03:47:37;;;;;;;6.30;5.70;;;13.00;99.90;;;;;;5026894;28;20427;-70
2023/06/01 03:50:06;;;;;;;5.70;5.17;;;12.90;99.90;;;;;;5028585;28;20418;-71
2023/06/01 03:52:32;;;;;;;8.60;4.83;;;12.90;99.90;;;;;;5028351;28;20661;-70
2023/06/01 03:55:01;;;;;;;10.90;5.30;;;12.80;99.90;;;;;;5022026;28;20445;-70
2023/06/01 03:57:26;;;;;;;10.07;6.63;;;12.80;99.90;;;;;;5030988;28;20504;-70
2023/06/01 03:59:52;;;;;;;8.07;4.40;;;12.70;99.90;;;;;;5031742;28;20518;-69
2023/06/01 04:02:21;;;;;;;13.40;7.20;;;12.70;99.90;;;;;;5031826;28;20200;-69
2023/06/01 04:04:47;;;;;;;7.10;4.87;;;12.80;99.90;;;;;;5031755;28;20168;-69
2023/06/01 04:07:21;;;;;;;9.87;4.50;;;12.70;99.90;;;;;;5031869;28;20410;-69
2023/06/01 04:09:47;;;;;;;8.80;4.83;;;12.70;99.90;;;;;;5029048;28;20167;-70
2023/06/01 04:12:13;;;;;;;8.60;5.10;;;12.70;99.90;;;;;;5031721;28;20505;-70
2023/06/01 04:14:39;;;;;;;9.40;5.60;;;12.80;99.90;;;;;;5031733;28;20414;-70
2023/06/01 04:17:06;;;;;;;7.07;5.20;;;12.80;99.90;;;;;;5031758;28;20414;-71
2023/06/01 04:19:32;;;;;;;6.07;5.10;;;12.70;99.90;;;;;;5031956;28;20819;-70
2023/06/01 04:21:58;;;;;;;8.10;5.00;;;13.10;99.90;;;;;;5031632;28;20433;-70
2023/06/01 04:24:23;;;;;;;7.13;5.00;;;13.50;99.90;;;;;;5031506;28;20445;-70
2023/06/01 04:26:50;;;;;;;7.60;4.13;;;13.60;99.90;;;;;;5031160;28;20174;-70
2023/06/01 04:29:16;;;;;;;14.53;6.13;;;14.00;99.90;;;;;;5031676;28;20448;-70
2023/06/01 04:31:41;;;;;;;8.93;5.30;;;14.10;99.90;;;;;;5029941;28;20517;-71
2023/06/01 04:34:07;;;;;;;8.00;5.30;;;13.90;99.90;;;;;;5031421;28;21102;-69
2023/06/01 04:36:37;;;;;;;12.23;6.20;;;13.70;99.90;;;;;;5031351;28;20176;-68
2023/06/01 04:39:03;;;;;;;9.37;6.90;;;13.80;99.90;;;;;;5026328;28;20254;-72
2023/06/01 04:41:30;;;;;;;10.10;6.87;;;13.70;99.90;;;;;;5031464;28;20515;-70
2023/06/01 04:43:58;;;;;;;16.27;7.17;;;13.30;99.90;;;;;;5031583;28;20845;-71
2023/06/01 04:46:26;;;;;;;14.03;6.83;;;13.40;99.90;;;;;;5031357;28;20410;-70
2023/06/01 04:48:52;;;;;;;11.10;7.30;;;13.30;99.90;;;;;;5031113;28;20869;-70
2023/06/01 04:51:23;;;;;;;13.70;8.20;;;13.00;99.90;;;;;;5031200;28;20435;-71
2023/06/01 04:53:51;;;;;;;12.50;7.70;;;12.80;99.90;;;;;;5024818;28;20980;-70
2023/06/01 04:56:26;;;;;;;8.97;7.03;;;12.90;99.90;;;;;;5030955;28;20410;-68
2023/06/01 04:58:53;;;;;;;10.33;7.43;;;12.80;99.90;;;;;;5031427;28;20912;-71
2023/06/01 05:01:18;;;;;;;7.93;7.00;;;12.70;99.90;;;;;;5030943;28;20452;-69
2023/06/01 05:03:45;;;;;;;11.07;8.03;;;12.80;99.90;;;;;;5030690;28;20454;-69
2023/06/01 05:06:13;;;;;;;13.67;7.57;;;12.70;99.90;;;;;;5030689;28;20207;-70
2023/06/01 05:08:41;;;;;;;10.77;7.13;;;12.60;99.90;;;;;;5030568;28;20516;-71
2023/06/01 05:11:08;;;;;;;12.63;7.07;;;12.60;99.90;;;;;;5030601;28;20502;-69
2023/06/01 05:13:35;;;;;;;9.93;6.80;;;12.60;99.90;;;;;;5030764;28;20706;-68
2023/06/01 05:16:02;;;;;;;9.13;7.17;;;12.50;99.90;;;;;;5030660;28;20433;-71
2023/06/01 05:18:28;;;;;;;10.63;7.97;;;12.70;99.90;;;;;;5029137;28;20517;-71
2023/06/01 05:20:53;;;;;;;8.43;6.30;;;12.80;99.90;;;;;;5030602;28;20479;-70
2023/06/01 05:23:19;;;;;;;13.50;6.87;;;12.70;99.90;;;;;;5030101;28;20207;-70
2023/06/01 05:25:45;;;;;;;17.43;7.30;;;12.60;99.90;;;;;;5025853;28;20168;-70
2023/06/01 05:28:10;;;;;;;9.80;7.30;;;12.50;99.90;;;;;;5030478;28;20187;-70
2023/06/01 05:30:36;;;;;;;9.53;6.80;;;12.60;99.90;;;;;;5048145;22;20544;-67
2023/06/01 05:33:03;;;;;;;11.43;7.37;;;12.50;99.90;;;;;;5028822;28;20229;-69
2023/06/01 05:35:29;;;;;;;8.23;6.43;;;12.40;99.90;;;;;;5022558;28;20183;-69
2023/06/01 05:37:54;;;;;;;10.57;8.00;;;12.50;99.90;;;;;;5022521;28;20525;-68
2023/06/01 05:40:20;;;;;;;10.97;6.23;;;12.60;99.90;;;;;;5018758;28;20203;-68
2023/06/01 05:42:46;;;;;;;13.60;6.70;;;12.60;99.90;;;;;;5036950;28;20196;-68
2023/06/01 05:45:12;;;;;;;13.90;5.57;;;12.70;99.90;;;;;;5024002;28;20434;-67
2023/06/01 05:47:38;;;;;;;12.87;6.30;;;12.80;99.90;;;;;;5027461;28;20777;-68
2023/06/01 05:50:04;;;;;;;11.93;7.70;;;12.80;99.90;;;;;;5023873;28;20187;-68
2023/06/01 05:52:30;;;;;;;11.63;6.90;;;12.90;99.90;;;;;;5030115;28;20258;-69
2023/06/01 05:54:56;;;;;;;12.43;6.27;;;12.90;99.90;;;;;;5042117;28;20599;-67
2023/06/01 05:57:22;;;;;;;9.90;6.13;;;12.90;99.90;;;;;;5024390;28;20411;-66
2023/06/01 05:59:47;;;;;;;18.53;7.10;;;12.90;99.90;;;;;;5026571;28;20665;-70
2023/06/01 06:02:14;;;;;;;7.90;5.50;;;12.80;99.90;;;;;;5028285;28;20175;-66
2023/06/01 06:04:40;;;;;;;8.33;5.60;;;13.00;99.90;;;;;;5030546;28;20203;-68
2023/06/01 06:07:06;;;;;;;7.67;5.90;;;13.10;99.90;;;;;;5027301;28;20838;-67
2023/06/01 06:09:33;;;;;;;7.70;5.93;;;13.10;99.90;;;;;;5018516;28;20504;-67
2023/06/01 06:11:59;;;;;;;8.03;4.50;;;13.30;99.90;;;;;;5027416;28;20199;-67
2023/06/01 06:14:25;;;;;;;7.30;4.90;;;13.40;99.90;;;;;;5022456;28;20422;-68
2023/06/01 06:16:51;;;;;;;6.03;4.80;;;13.50;99.90;;;;;;5026060;28;20406;-68
2023/06/01 06:19:16;;;;;;;9.20;3.97;;;13.60;99.90;;;;;;5020899;28;20430;-69
2023/06/01 06:21:42;;;;;;;10.27;4.53;;;13.60;99.90;;;;;;5029865;28;20214;-69
2023/06/01 06:24:08;;;;;;;6.50;4.23;;;13.60;99.90;;;;;;5026968;28;20282;-67
2023/06/01 06:26:34;;;;;;;6.60;4.60;;;13.90;99.90;;;;;;5029846;28;20425;-67
2023/06/01 06:29:00;;;;;;;7.70;4.20;;;13.80;99.90;;;;;;5025912;28;20176;-67
2023/06/01 06:31:26;;;;;;;7.10;4.80;;;14.20;99.90;;;;;;5030520;28;20550;-73
2023/06/01 06:33:52;;;;;;;7.00;4.50;;;14.20;99.90;;;;;;5025938;28;20407;-67
2023/06/01 06:36:18;;;;;;;5.60;4.07;;;14.20;99.90;;;;;;5027125;28;20414;-68
2023/06/01 06:38:44;;;;;;;7.77;5.10;;;14.60;99.90;;;;;;5030002;28;20513;-67
2023/06/01 06:41:10;;;;;;;5.67;4.60;;;14.70;99.90;;;;;;5025843;28;20470;-67
2023/06/01 06:43:36;;;;;;;5.80;5.00;;;15.20;99.90;;;;;;5028333;28;20463;-67
2023/06/01 06:46:02;;;;;;;6.57;4.20;;;14.90;99.90;;;;;;5026138;28;20421;-67
2023/06/01 06:48:28;;;;;;;5.60;5.00;;;15.30;99.90;;;;;;5027754;28;20201;-67
2023/06/01 06:50:54;;;;;;;10.33;5.13;;;16.70;99.90;;;;;;5024012;28;20889;-69
2023/06/01 06:53:20;;;;;;;10.37;5.73;;;16.60;99.90;;;;;;5028708;28;20176;-66
2023/06/01 06:55:45;;;;;;;6.87;4.83;;;17.30;99.90;;;;;;5030113;28;20177;-67
2023/06/01 06:58:11;;;;;;;4.30;3.90;;;17.00;99.90;;;;;;5016027;28;20262;-67
2023/06/01 07:00:37;;;;;;;7.00;3.80;;;17.20;99.90;;;;;;5027932;28;20198;-67
2023/06/01 07:03:03;;;;;;;5.80;3.60;;;17.60;99.90;;;;;;5021329;28;20254;-67
2023/06/01 07:05:29;;;;;;;9.50;6.10;;;16.70;99.90;;;;;;5017387;28;20925;-67
2023/06/01 07:07:55;;;;;;;7.07;4.23;;;16.50;99.90;;;;;;5029266;28;20179;-68
2023/06/01 07:10:20;;;;;;;6.10;3.40;;;16.60;99.90;;;;;;5028128;28;20440;-68
2023/06/01 07:12:46;;;;;;;7.77;4.50;;;16.50;99.90;;;;;;5021361;28;20839;-68
2023/06/01 07:15:12;;;;;;;5.67;4.20;;;16.00;99.90;;;;;;5024976;28;20184;-68
2023/06/01 07:17:37;;;;;;;6.97;4.60;;;16.00;99.90;;;;;;5027751;28;20247;-67
2023/06/01 07:20:06;;;;;;;13.03;5.30;;;15.60;99.90;;;;;;5028124;28;20216;-73
2023/06/01 07:22:32;;;;;;;6.30;4.23;;;15.60;99.90;;;;;;5027315;28;20184;-67
2023/06/01 07:24:58;;;;;;;11.60;5.10;;;15.40;99.90;;;;;;5029600;28;20410;-72
2023/06/01 07:27:24;;;;;;;11.57;4.73;;;14.90;99.90;;;;;;5025668;28;20400;-66
2023/06/01 07:29:54;;;;;;;6.93;4.50;;;15.00;99.90;;;;;;5028160;28;20300;-67
2023/06/01 07:32:21;;;;;;;8.03;4.30;;;15.60;99.90;;;;;;5027427;28;20802;-67
2023/06/01 07:34:47;;;;;;;6.17;4.20;;;15.70;99.90;;;;;;5029895;28;20419;-67
2023/06/01 07:37:12;;;;;;;6.17;3.70;;;16.20;99.90;;;;;;5033265;28;20462;-67
2023/06/01 07:39:38;;;;;;;10.37;5.20;;;16.00;99.90;;;;;;5033346;28;20192;-69
2023/06/01 07:42:04;;;;;;;10.47;5.27;;;16.20;99.90;;;;;;5028730;28;20213;-66
2023/06/01 07:44:30;;;;;;;4.40;3.87;;;16.00;99.90;;;;;;5031292;28;20202;-67
2023/06/01 07:46:56;;;;;;;5.40;4.10;;;15.70;99.90;;;;;;5021261;28;20429;-67
2023/06/01 07:49:21;;;;;;;6.80;4.73;;;16.00;99.90;;;;;;5030238;28;20635;-68
2023/06/01 07:51:48;;;;;;;7.70;4.27;;;15.80;99.90;;;;;;5033403;28;20247;-67
2023/06/01 07:54:14;;;;;;;6.27;3.90;;;15.60;99.90;;;;;;5028109;28;20182;-67
2023/06/01 07:56:39;;;;;;;6.40;3.87;;;16.40;99.90;;;;;;5032049;28;20421;-67
2023/06/01 07:59:05;;;;;;;4.37;3.73;;;17.00;99.90;;;;;;5025370;28;20176;-68
2023/06/01 08:01:32;;;;;;;6.77;3.83;;;18.20;99.90;;;;;;5033028;28;20657;-68
2023/06/01 08:03:58;;;;;;;4.17;3.53;;;19.30;99.90;;;;;;5027571;28;20555;-67
2023/06/01 08:06:24;;;;;;;5.40;3.23;;;19.60;99.90;;;;;;5029175;28;20506;-68
2023/06/01 08:08:51;;;;;;;6.70;3.77;;;20.40;99.90;;;;;;5032970;28;20165;-66
2023/06/01 08:11:17;;;;;;;4.23;2.93;;;21.10;99.90;;;;;;5028995;28;20422;-65
2023/06/01 08:13:45;;;;;;;7.30;3.43;;;20.70;99.90;;;;;;5031452;28;20880;-68
2023/06/01 08:16:23;;;;;;;6.47;4.20;;;20.60;99.90;;;;;;5028059;28;20841;-67
2023/06/01 08:18:48;;;;;;;6.70;4.20;;;19.40;99.90;;;;;;5031383;28;20785;-66
2023/06/01 08:21:17;;;;;;;5.47;4.27;;;19.80;99.90;;;;;;5027279;28;20426;-67
2023/06/01 08:23:47;;;;;;;3.80;3.43;;;20.40;99.90;;;;;;5029179;28;20196;-67
2023/06/01 08:26:13;;;;;;;5.17;3.30;;;19.30;99.90;;;;;;5032825;28;20433;-67
2023/06/01 08:28:39;;;;;;;4.90;3.60;;;20.60;99.90;;;;;;5026962;28;20929;-67
2023/06/01 08:31:07;;;;;;;6.00;3.77;;;20.50;99.90;;;;;;5032875;28;20493;-68
2023/06/01 08:33:33;;;;;;;6.17;3.53;;;19.20;99.90;;;;;;5025694;28;20179;-66
2023/06/01 08:35:59;;;;;;;5.23;3.90;;;19.90;99.90;;;;;;5027052;28;20436;-66
2023/06/01 08:38:29;;;;;;;7.10;4.37;;;20.10;99.90;;;;;;5027048;28;20230;-67
2023/06/01 08:40:56;;;;;;;5.47;3.03;;;21.40;99.90;;;;;;5028123;28;20427;-66
2023/06/01 08:43:26;;;;;;;6.50;3.40;;;21.10;99.90;;;;;;5030044;28;20584;-68
2023/06/01 08:45:52;;;;;;;4.27;3.13;;;20.50;99.90;;;;;;5027774;28;21032;-66
2023/06/01 08:48:19;;;;;;;3.97;2.87;;;22.70;99.90;;;;;;5028838;28;20488;-66
2023/06/01 08:50:50;;;;;;;5.27;3.40;;;23.20;99.90;;;;;;5026665;28;20191;-68
2023/06/01 08:53:21;;;;;;;4.93;3.80;;;23.10;99.90;;;;;;5026698;28;20500;-67
2023/06/01 08:55:54;;;;;;;3.40;2.90;;;22.50;99.90;;;;;;5024718;28;20446;-66
2023/06/01 08:58:20;;;;;;;3.40;2.73;;;21.80;99.90;;;;;;5023760;28;20411;-67
2023/06/01 09:00:53;;;;;;;4.40;3.00;;;21.10;99.90;;;;;;5032014;28;20993;-67
2023/06/01 09:03:19;;;;;;;5.00;3.90;;;20.50;99.90;;;;;;5026232;28;20195;-67
2023/06/01 09:05:45;;;;;;;7.37;3.77;;;21.80;99.90;;;;;;5028946;28;20541;-67
2023/06/01 09:08:12;;;;;;;3.40;2.83;;;21.20;99.90;;;;;;5030936;28;20422;-70
2023/06/01 09:10:38;;;;;;;4.37;3.33;;;21.70;99.90;;;;;;5028247;28;20433;-67
2023/06/01 09:13:07;;;;;;;5.33;3.17;;;22.70;99.90;;;;;;5030681;28;20414;-67
2023/06/01 09:15:33;;;;;;;3.37;2.37;;;22.10;99.90;;;;;;5031955;28;20292;-67
2023/06/01 09:18:10;;;;;;;3.60;3.10;;;22.00;99.90;;;;;;5030058;28;20445;-68
2023/06/01 09:20:38;;;;;;;6.77;3.70;;;21.90;99.90;;;;;;5026606;28;20321;-71
2023/06/01 09:23:04;;;;;;;3.33;3.00;;;21.80;99.90;;;;;;5029330;28;20465;-66
2023/06/01 09:25:33;;;;;;;7.00;3.93;;;23.40;99.70;;;;;;5031299;28;20402;-69
2023/06/01 09:28:08;;;;;;;4.33;3.17;;;22.40;99.90;;;;;;5027849;28;20418;-67
2023/06/01 09:30:41;;;;;;;4.13;3.50;;;22.00;99.90;;;;;;5029985;28;20481;-68
2023/06/01 09:33:18;;;;;;;3.43;2.77;;;21.60;99.90;;;;;;5026806;28;20418;-67
2023/06/01 09:35:47;;;;;;;5.73;3.20;;;22.20;99.90;;;;;;5029322;28;20413;-67
2023/06/01 09:38:24;;;;;;;4.07;3.07;;;23.00;99.70;;;;;;5025650;28;20475;-66
2023/06/01 09:41:00;;;;;;;3.70;2.70;;;23.70;98.10;;;;;;5021213;28;20482;-66
2023/06/01 09:43:27;;;;;;;4.17;3.77;;;23.80;96.80;;;;;;5027295;28;20532;-68
2023/06/01 09:46:11;;;;;;;5.03;3.33;;;24.30;96.60;;;;;;5027020;28;20418;-66
2023/06/01 09:48:37;;;;;;;4.83;3.27;;;22.90;99.00;;;;;;5022652;28;20480;-67
2023/06/01 09:51:09;;;;;;;6.97;3.30;;;23.00;98.70;;;;;;5030533;28;20426;-66
2023/06/01 09:53:43;;;;;;;6.13;3.73;;;22.90;98.40;;;;;;5028704;28;20410;-66
2023/06/01 09:56:09;;;;;;;5.00;3.37;;;22.70;98.60;;;;;;5029534;28;20804;-71
2023/06/01 09:58:39;;;;;;;5.20;3.83;;;23.10;98.60;;;;;;5023230;28;20415;-66
2023/06/01 10:01:09;;;;;;;5.40;3.60;;;24.00;96.60;;;;;;5030764;28;20438;-66
2023/06/01 10:03:42;;;;;;;3.50;3.20;;;23.10;97.10;;;;;;5025435;28;20927;-67
2023/06/01 10:06:14;;;;;;;5.10;4.03;;;22.40;98.60;;;;;;5028008;28;20402;-68
2023/06/01 10:08:47;;;;;;;5.60;4.20;;;20.90;99.90;;;;;;5030051;28;20410;-66
2023/06/01 10:11:13;;;;;;;5.47;4.07;;;20.80;99.90;;;;;;5027189;28;20438;-66
2023/06/01 10:13:40;;;;;;;5.87;4.57;;;20.70;99.80;;;;;;5029284;28;20420;-66
2023/06/01 10:16:12;;;;;;;7.53;5.13;;;20.50;99.90;;;;;;5025840;28;20943;-67
2023/06/01 10:18:42;;;;;;;6.43;5.10;;;20.60;99.90;;;;;;5028241;28;20475;-66
2023/06/01 10:21:08;;;;;;;5.50;5.00;;;21.50;99.40;;;;;;5022312;28;20433;-67
2023/06/01 10:23:35;;;;;;;6.83;5.63;;;20.90;99.90;;;;;;5026872;28;21037;-67
2023/06/01 10:26:09;;;;;;;7.80;5.53;;;20.80;99.90;;;;;;5027597;28;20173;-66
2023/06/01 10:28:36;;;;;;;5.93;5.37;;;21.00;99.90;;;;;;5027217;28;20417;-66
2023/06/01 10:31:36;;;;;;;7.70;6.60;;;21.20;99.30;;;;;;5029868;28;20451;-66
2023/06/01 10:34:05;;;;;;;6.23;5.70;;;20.30;99.90;;;;;;5025920;28;20408;-66
2023/06/01 10:36:53;;;;;;;9.03;6.67;;;20.80;99.90;;;;;;5021235;28;20519;-66
2023/06/01 10:42:24;;;;;;;9.07;6.93;;;20.30;99.90;;;;;;5035033;28;20422;-66
2023/06/01 10:44:50;;;;;;;6.83;6.23;;;20.60;99.90;;;;;;5030136;28;20461;-66
2023/06/01 10:47:17;;;;;;;11.07;7.23;;;20.40;99.90;;;;;;5030696;28;20409;-66
2023/06/01 10:49:51;;;;;;;11.70;7.57;;;20.10;99.90;;;;;;5026321;28;20502;-68
2023/06/01 10:52:41;;;;;;;14.73;8.27;;;20.40;99.90;;;;;;5029893;28;20502;-66
2023/06/01 10:55:06;;;;;;;7.10;6.00;;;20.20;99.90;;;;;;5028169;28;20773;-68
2023/06/01 10:57:40;;;;;;;8.63;7.43;;;20.60;99.90;;;;;;5029953;28;20419;-67
2023/06/01 11:00:23;;;;;;;10.60;7.70;;;20.60;99.70;;;;;;5027517;28;20709;-66
2023/06/01 11:02:53;;;;;;;10.40;8.33;;;20.70;99.20;;;;;;5025285;28;20544;-68
2023/06/01 11:05:43;;;;;;;11.27;7.00;;;20.40;99.90;;;;;;5028619;28;20932;-66
2023/06/01 11:08:30;;;;;;;9.27;8.43;;;20.30;99.90;;;;;;5035472;28;20414;-69
2023/06/01 11:11:03;;;;;;;10.90;7.53;;;20.20;99.90;;;;;;5023483;28;20429;-66
2023/06/01 11:13:43;;;;;;;7.90;7.07;;;20.20;99.90;;;;;;5035203;28;20442;-67
2023/06/01 11:16:12;;;;;;;7.80;6.30;;;20.30;99.90;;;;;;5022390;28;20535;-66
2023/06/01 11:18:43;;;;;;;9.17;7.40;;;20.50;99.20;;;;;;5027693;28;20815;-65
2023/06/01 11:21:18;;;;;;;7.57;6.83;;;20.60;99.30;;;;;;5031003;28;20870;-65
2023/06/01 11:23:47;;;;;;;13.50;7.20;;;20.50;99.20;;;;;;5030434;28;20464;-66
2023/06/01 11:26:18;;;;;;;7.80;7.10;;;20.30;99.30;;;;;;5033447;28;20417;-68
2023/06/01 11:28:47;;;;;;;11.17;8.07;;;20.30;99.00;;;;;;5032590;28;21000;-66
2023/06/01 11:31:20;;;;;;;7.07;6.37;;;20.00;99.90;;;;;;5035962;28;20453;-66
2023/06/01 11:33:55;;;;;;;7.47;6.70;;;20.30;99.50;;;;;;5032139;28;20411;-66
2023/06/01 11:36:28;;;;;;;7.37;6.67;;;20.40;99.10;;;;;;5030889;28;20758;-66
2023/06/01 11:38:57;;;;;;;10.60;7.77;;;20.50;99.20;;;;;;5035956;28;20510;-65
2023/06/01 11:41:26;;;;;;;6.03;5.43;;;20.50;99.20;;;;;;5032909;28;20901;-66
2023/06/01 11:43:56;;;;;;;6.67;5.77;;;20.60;99.90;;;;;;5031064;28;20460;-67
2023/06/01 11:46:26;;;;;;;6.13;5.53;;;20.90;99.40;;;;;;5035505;28;20407;-66
2023/06/01 11:49:05;;;;;;;9.20;8.17;;;20.90;99.30;;;;;;5033670;28;20887;-66
2023/06/01 11:51:33;;;;;;;7.20;6.50;;;21.00;99.00;;;;;;5032978;28;20454;-66
2023/06/01 11:54:04;;;;;;;10.37;7.10;;;21.00;99.20;;;;;;5024132;28;20454;-67
2023/06/01 11:56:36;;;;;;;9.00;6.43;;;20.90;99.60;;;;;;5032742;28;20456;-66
2023/06/01 11:59:13;;;;;;;10.33;6.60;;;21.00;99.40;;;;;;5029864;28;20424;-65
2023/06/01 12:01:46;;;;;;;8.03;5.80;;;21.00;99.10;;;;;;5035563;28;20429;-67
2023/06/01 12:04:25;;;;;;;10.33;7.13;;;20.90;99.10;;;;;;5036145;28;20940;-66
2023/06/01 12:07:02;;;;;;;11.10;9.93;;;21.00;98.80;;;;;;5033133;28;20463;-68
2023/06/01 12:09:29;;;;;;;18.97;15.90;;;21.20;98.90;;;;;;5032956;28;20518;-66
2023/06/01 12:11:55;;;;;;;8.37;6.20;;;21.40;98.30;;;;;;5033376;28;20924;-66
2023/06/01 12:14:21;;;;;;;10.20;6.80;;;21.40;98.10;;;;;;5035275;28;20412;-68
2023/06/01 12:16:58;;;;;;;8.17;5.43;;;21.30;97.40;;;;;;5028774;28;20559;-66
2023/06/01 12:19:28;;;;;;;9.70;5.83;;;21.00;97.50;;;;;;5031784;28;20562;-66
2023/06/01 12:21:55;;;;;;;7.33;6.57;;;20.90;97.60;;;;;;5026422;28;20415;-66
2023/06/01 12:24:34;;;;;;;7.83;6.30;;;21.00;97.70;;;;;;5032237;28;20457;-67
2023/06/01 12:27:12;;;;;;;7.10;5.40;;;21.20;97.80;;;;;;5023115;28;20437;-67
2023/06/01 12:29:42;;;;;;;8.43;6.07;;;21.10;97.20;;;;;;5021201;28;20445;-66
2023/06/01 12:32:09;;;;;;;7.10;5.90;;;21.20;97.00;;;;;;5031971;28;20415;-67
2023/06/01 12:34:39;;;;;;;8.03;6.13;;;21.20;98.00;;;;;;5032394;28;20465;-65
2023/06/01 12:37:18;;;;;;;10.83;6.57;;;21.40;96.90;;;;;;5027419;28;20419;-65
2023/06/01 12:39:52;;;;;;;6.90;5.63;;;21.00;97.30;;;;;;5032841;28;20477;-65
2023/06/01 12:42:18;;;;;;;7.83;6.40;;;21.10;97.70;;;;;;5029031;28;20497;-67
2023/06/01 12:44:46;;;;;;;6.00;5.50;;;21.30;97.70;;;;;;5026750;28;20592;-67
2023/06/01 12:47:15;;;;;;;7.03;6.13;;;21.60;97.40;;;;;;5032339;28;20515;-66
2023/06/01 12:50:03;;;;;;;8.70;6.40;;;21.60;97.20;;;;;;5029981;28;20530;-66
2023/06/01 12:52:35;;;;;;;6.33;5.73;;;21.40;97.50;;;;;;5030316;28;20439;-66
2023/06/01 12:55:03;;;;;;;7.17;6.50;;;21.50;97.40;;;;;;5030906;28;20425;-68
2023/06/01 12:57:29;;;;;;;7.60;5.70;;;21.40;96.70;;;;;;5030744;28;20460;-67